createdAt,value
2017-10-22T00:01:59.344Z,3.60
2017-10-22T00:04:26.611Z,3.50
2017-10-22T00:06:53.906Z,3.20
2017-10-22T00:09:21.166Z,3.57
2017-10-22T00:11:48.448Z,3.00
2017-10-22T00:14:15.729Z,3.43
2017-10-22T00:16:43.005Z,3.30
2017-10-22T00:19:10.269Z,3.67
2017-10-22T00:21:37.559Z,3.23
2017-10-22T00:24:04.883Z,3.77
2017-10-22T00:26:32.650Z,3.77
2017-10-22T00:28:59.954Z,3.17
2017-10-22T00:31:27.319Z,3.10
2017-10-22T00:33:54.875Z,3.93
2017-10-22T00:36:22.150Z,3.47
2017-10-22T00:38:49.421Z,3.30
2017-10-22T00:41:16.744Z,3.30
2017-10-22T00:43:44.007Z,2.83
2017-10-22T00:46:11.287Z,3.20
2017-10-22T00:48:38.556Z,2.50
2017-10-22T00:51:05.838Z,2.50
2017-10-22T00:53:33.100Z,3.20
2017-10-22T00:56:00.388Z,3.40
2017-10-22T00:58:27.646Z,3.80
2017-10-22T01:00:54.935Z,3.20
2017-10-22T01:03:22.202Z,5.73
2017-10-22T01:05:49.484Z,3.43
2017-10-22T01:08:16.748Z,3.00
2017-10-22T01:10:43.998Z,2.53
2017-10-22T01:13:11.283Z,3.60
2017-10-22T01:15:38.546Z,2.80
2017-10-22T01:18:05.822Z,3.00
2017-10-22T01:20:33.091Z,2.80
2017-10-22T01:23:00.380Z,3.33
2017-10-22T01:25:27.648Z,3.60
2017-10-22T01:27:54.933Z,3.17
2017-10-22T01:30:22.195Z,3.43
2017-10-22T01:32:49.480Z,3.53
2017-10-22T01:35:16.750Z,3.80
2017-10-22T01:37:44.035Z,3.90
2017-10-22T01:40:11.300Z,4.20
2017-10-22T01:42:38.583Z,3.30
2017-10-22T01:45:05.855Z,3.43
2017-10-22T01:47:33.134Z,3.03
2017-10-22T01:50:01.110Z,2.93
2017-10-22T01:52:28.383Z,2.90
2017-10-22T01:54:55.639Z,3.27
2017-10-22T01:57:22.923Z,2.87
2017-10-22T01:59:50.186Z,3.40
2017-10-22T02:02:17.475Z,3.03
2017-10-22T02:04:44.739Z,2.50
2017-10-22T02:07:12.029Z,3.20
2017-10-22T02:09:39.291Z,2.80
2017-10-22T02:12:06.572Z,3.40
2017-10-22T02:14:33.835Z,3.70
2017-10-22T02:17:01.122Z,3.10
2017-10-22T02:19:28.386Z,3.27
2017-10-22T02:21:55.666Z,2.73
2017-10-22T02:24:22.923Z,3.43
2017-10-22T02:26:50.207Z,3.47
2017-10-22T02:29:17.476Z,3.00
2017-10-22T02:31:44.765Z,3.97
2017-10-22T02:34:12.044Z,2.93
2017-10-22T02:36:39.316Z,3.10
2017-10-22T02:39:06.583Z,3.23
2017-10-22T02:41:33.865Z,2.73
2017-10-22T02:44:01.131Z,3.43
2017-10-22T02:46:28.418Z,3.33
2017-10-22T02:48:55.680Z,3.40
2017-10-22T02:51:22.961Z,2.93
2017-10-22T02:53:50.219Z,3.43
2017-10-22T02:56:17.502Z,2.80
2017-10-22T02:58:44.768Z,3.07
2017-10-22T03:01:12.053Z,4.50
2017-10-22T03:03:39.325Z,3.53
2017-10-22T03:06:06.586Z,3.27
2017-10-22T03:08:33.881Z,3.83
2017-10-22T03:11:01.126Z,3.60
2017-10-22T03:13:28.420Z,3.80
2017-10-22T03:15:55.681Z,3.27
2017-10-22T03:18:22.964Z,3.53
2017-10-22T03:20:50.235Z,3.77
2017-10-22T03:23:17.514Z,3.97
2017-10-22T03:25:44.775Z,3.33
2017-10-22T03:28:12.064Z,3.30
2017-10-22T03:30:39.326Z,4.20
2017-10-22T03:33:06.622Z,3.73
2017-10-22T03:35:33.883Z,3.30
2017-10-22T03:38:01.176Z,4.53
2017-10-22T03:40:28.431Z,3.30
2017-10-22T03:42:55.718Z,3.47
2017-10-22T03:45:22.983Z,3.03
2017-10-22T03:47:50.258Z,4.10
2017-10-22T03:50:17.537Z,2.93
2017-10-22T03:52:44.810Z,3.23
2017-10-22T03:55:12.068Z,2.97
2017-10-22T03:57:39.365Z,3.67
2017-10-22T04:00:06.630Z,2.93
2017-10-22T04:02:33.908Z,3.63
2017-10-22T04:05:01.175Z,3.50
2017-10-22T04:07:28.457Z,4.00
2017-10-22T04:09:55.726Z,3.20
2017-10-22T04:12:23.008Z,2.73
2017-10-22T04:14:50.258Z,2.90
2017-10-22T04:17:17.543Z,3.03
2017-10-22T04:19:44.815Z,3.00
2017-10-22T04:22:12.100Z,2.60
2017-10-22T04:24:39.354Z,2.93
2017-10-22T04:27:06.652Z,3.20
2017-10-22T04:29:33.915Z,3.00
2017-10-22T04:32:01.199Z,2.50
2017-10-22T04:34:28.463Z,2.70
2017-10-22T04:36:55.741Z,2.63
2017-10-22T04:39:22.999Z,3.20
2017-10-22T04:41:50.284Z,2.60
2017-10-22T04:44:17.566Z,2.60
2017-10-22T04:46:44.831Z,3.40
2017-10-22T04:49:12.090Z,2.97
2017-10-22T04:51:39.381Z,2.30
2017-10-22T04:54:07.479Z,2.63
2017-10-22T04:56:34.746Z,2.63
2017-10-22T04:59:02.025Z,2.27
2017-10-22T05:01:29.281Z,2.70
2017-10-22T05:03:56.563Z,3.63
2017-10-22T05:06:23.831Z,2.50
2017-10-22T05:08:51.120Z,2.97
2017-10-22T05:11:18.382Z,3.00
2017-10-22T05:13:45.663Z,3.90
2017-10-22T05:16:12.928Z,2.90
2017-10-22T05:18:40.206Z,2.90
2017-10-22T05:21:07.476Z,2.63
2017-10-22T05:23:34.755Z,2.70
2017-10-22T05:26:02.019Z,2.50
2017-10-22T05:28:29.308Z,2.80
2017-10-22T05:30:56.570Z,2.93
2017-10-22T05:33:23.858Z,2.40
2017-10-22T05:35:51.128Z,2.53
2017-10-22T05:38:18.408Z,2.67
2017-10-22T05:40:45.671Z,2.90
2017-10-22T05:43:12.960Z,3.40
2017-10-22T05:45:40.238Z,2.77
2017-10-22T05:48:07.529Z,2.50
2017-10-22T05:50:34.795Z,3.77
2017-10-22T05:53:02.059Z,2.13
2017-10-22T05:55:29.351Z,2.67
2017-10-22T05:57:56.619Z,2.50
2017-10-22T06:00:23.915Z,2.60
2017-10-22T06:02:51.231Z,2.47
2017-10-22T06:05:18.498Z,2.57
2017-10-22T06:07:45.755Z,3.20
2017-10-22T06:10:13.048Z,2.53
2017-10-22T06:12:40.314Z,2.40
2017-10-22T06:15:07.611Z,2.27
2017-10-22T06:17:40.600Z,2.60
2017-10-22T06:20:08.690Z,2.50
2017-10-22T06:22:35.993Z,2.57
2017-10-22T06:25:03.258Z,2.87
2017-10-22T06:27:30.548Z,2.20
2017-10-22T06:29:57.842Z,2.27
2017-10-22T06:32:25.135Z,2.03
2017-10-22T06:34:52.397Z,2.23
2017-10-22T06:37:19.766Z,3.07
2017-10-22T06:39:47.036Z,2.20
2017-10-22T06:42:14.318Z,2.60
2017-10-22T06:44:41.614Z,2.10
2017-10-22T06:47:08.868Z,2.40
2017-10-22T06:49:36.171Z,2.77
2017-10-22T06:52:03.463Z,2.50
2017-10-22T06:54:30.724Z,3.03
2017-10-22T06:56:58.088Z,3.20
2017-10-22T06:59:25.354Z,2.40
2017-10-22T07:01:52.625Z,2.20
2017-10-22T07:04:19.937Z,2.53
2017-10-22T07:06:47.275Z,2.67
2017-10-22T07:09:14.575Z,2.47
2017-10-22T07:11:41.854Z,3.63
2017-10-22T07:14:09.144Z,2.67
2017-10-22T07:16:36.461Z,2.70
2017-10-22T07:19:03.803Z,2.83
2017-10-22T07:21:31.047Z,2.40
2017-10-22T07:23:58.349Z,2.17
2017-10-22T07:26:25.667Z,2.60
2017-10-22T07:28:53.006Z,2.50
2017-10-22T07:31:20.271Z,2.70
2017-10-22T07:33:47.572Z,3.20
2017-10-22T07:36:14.834Z,2.43
2017-10-22T07:38:42.149Z,2.40
2017-10-22T07:41:09.451Z,2.37
2017-10-22T07:43:36.791Z,2.20
2017-10-22T07:46:04.744Z,2.60
2017-10-22T07:48:32.088Z,2.57
2017-10-22T07:51:00.137Z,2.10
2017-10-22T07:53:27.694Z,2.83
2017-10-22T07:55:54.983Z,2.30
2017-10-22T07:58:22.495Z,2.37
2017-10-22T08:00:49.855Z,2.03
2017-10-22T08:03:17.171Z,2.40
2017-10-22T08:05:44.446Z,2.40
2017-10-22T08:08:11.800Z,2.63
2017-10-22T08:10:39.107Z,2.73
2017-10-22T08:13:06.388Z,2.50
2017-10-22T08:15:33.721Z,3.23
2017-10-22T08:18:00.994Z,2.40
2017-10-22T08:20:28.328Z,2.30
2017-10-22T08:22:55.621Z,2.77
2017-10-22T08:25:23.112Z,2.60
2017-10-22T08:27:50.413Z,3.00
2017-10-22T08:30:17.712Z,3.00
2017-10-22T08:32:45.025Z,3.57
2017-10-22T08:35:12.336Z,2.73
2017-10-22T08:37:39.642Z,3.03
2017-10-22T08:40:07.004Z,2.30
2017-10-22T08:42:34.360Z,2.77
2017-10-22T08:45:01.717Z,3.47
2017-10-22T08:47:29.048Z,2.80
2017-10-22T08:49:56.392Z,2.63
2017-10-22T08:52:23.730Z,3.00
2017-10-22T08:54:51.078Z,2.20
2017-10-22T08:57:18.360Z,2.87
2017-10-22T08:59:46.342Z,2.67
2017-10-22T09:02:13.674Z,3.10
2017-10-22T09:04:40.994Z,2.90
2017-10-22T09:07:08.329Z,3.20
2017-10-22T09:09:35.662Z,2.53
2017-10-22T09:12:02.959Z,2.40
2017-10-22T09:14:30.398Z,3.20
2017-10-22T09:16:57.992Z,2.70
2017-10-22T09:19:25.350Z,2.47
2017-10-22T09:21:52.607Z,3.07
2017-10-22T09:24:19.922Z,3.00
2017-10-22T09:26:47.195Z,2.40
2017-10-22T09:29:14.748Z,3.30
2017-10-22T09:31:42.012Z,2.60
2017-10-22T09:34:09.313Z,2.60
2017-10-22T09:36:36.708Z,3.20
2017-10-22T09:39:03.982Z,2.87
2017-10-22T09:41:31.265Z,2.90
2017-10-22T09:43:58.552Z,2.67
2017-10-22T09:46:25.857Z,3.23
2017-10-22T09:48:53.122Z,3.57
2017-10-22T09:51:20.417Z,2.80
2017-10-22T09:53:48.735Z,2.93
2017-10-22T09:56:17.728Z,3.27
2017-10-22T09:58:45.355Z,3.20
2017-10-22T10:01:12.647Z,2.80
2017-10-22T10:03:39.908Z,3.50
2017-10-22T10:06:07.288Z,2.80
2017-10-22T10:08:34.569Z,3.00
2017-10-22T10:11:02.010Z,2.87
2017-10-22T10:13:29.369Z,3.33
2017-10-22T10:15:56.712Z,2.70
2017-10-22T10:18:24.101Z,2.93
2017-10-22T10:20:51.384Z,3.47
2017-10-22T10:23:18.959Z,3.30
2017-10-22T10:25:46.269Z,3.17
2017-10-22T10:28:13.547Z,2.40
2017-10-22T10:30:40.834Z,2.57
2017-10-22T10:33:08.182Z,2.00
2017-10-22T10:35:35.514Z,2.40
2017-10-22T10:38:02.862Z,3.10
2017-10-22T10:40:30.204Z,2.73
2017-10-22T10:42:57.536Z,2.40
2017-10-22T10:45:24.907Z,3.20
2017-10-22T10:47:52.260Z,2.37
2017-10-22T10:50:19.545Z,2.87
2017-10-22T10:52:46.936Z,2.43
2017-10-22T10:55:14.248Z,2.70
2017-10-22T10:57:41.582Z,3.23
2017-10-22T11:00:08.952Z,2.80
2017-10-22T11:02:36.258Z,2.27
2017-10-22T11:05:03.547Z,2.97
2017-10-22T11:07:30.839Z,2.60
2017-10-22T11:09:58.299Z,2.47
2017-10-22T11:12:25.613Z,2.63
2017-10-22T11:14:52.867Z,2.80
2017-10-22T11:17:20.192Z,3.10
2017-10-22T11:19:47.483Z,2.50
2017-10-22T11:22:14.838Z,3.00
2017-10-22T11:24:42.121Z,2.50
2017-10-22T11:27:09.367Z,2.20
2017-10-22T11:29:36.660Z,2.20
2017-10-22T11:32:03.958Z,2.20
2017-10-22T11:34:31.237Z,2.10
2017-10-22T11:36:58.572Z,2.00
2017-10-22T11:39:25.863Z,2.17
2017-10-22T11:41:53.165Z,1.63
2017-10-22T11:44:20.515Z,1.73
2017-10-22T11:46:47.776Z,1.63
2017-10-22T11:49:15.094Z,2.20
2017-10-22T11:51:42.413Z,1.80
2017-10-22T11:54:09.700Z,1.93
2017-10-22T11:56:37.012Z,1.93
2017-10-22T11:59:04.320Z,2.90
2017-10-22T12:01:31.673Z,2.20
2017-10-22T12:03:58.964Z,2.30
2017-10-22T12:06:26.268Z,2.00
2017-10-22T12:08:53.586Z,2.13
2017-10-22T12:11:20.880Z,2.07
2017-10-22T12:13:48.203Z,1.80
2017-10-22T12:16:15.529Z,3.33
2017-10-22T12:18:46.120Z,1.57
2017-10-22T12:21:16.855Z,1.80
2017-10-22T12:23:44.433Z,2.10
2017-10-22T12:26:11.732Z,2.03
2017-10-22T12:28:38.999Z,2.47
2017-10-22T12:31:06.308Z,2.00
2017-10-22T12:33:33.581Z,1.90
2017-10-22T12:36:00.968Z,1.70
2017-10-22T12:38:28.707Z,1.80
2017-10-22T12:40:56.247Z,1.70
2017-10-22T12:43:23.839Z,1.70
2017-10-22T12:45:51.138Z,1.73
2017-10-22T12:48:18.483Z,1.30
2017-10-22T12:50:47.260Z,1.87
2017-10-22T12:53:15.220Z,2.20
2017-10-22T12:55:42.526Z,1.27
2017-10-22T12:58:09.816Z,1.20
2017-10-22T13:00:37.130Z,1.20
2017-10-22T13:03:04.395Z,1.00
2017-10-22T13:05:31.706Z,1.07
2017-10-22T13:07:58.980Z,1.00
2017-10-22T13:10:26.277Z,0.90
2017-10-22T13:12:53.604Z,1.20
2017-10-22T13:15:20.875Z,1.00
2017-10-22T13:17:48.182Z,0.83
2017-10-22T13:20:15.439Z,1.17
2017-10-22T13:22:43.025Z,0.87
2017-10-22T13:25:11.230Z,1.00
2017-10-22T13:27:38.518Z,0.80
2017-10-22T13:30:05.811Z,1.00
2017-10-22T13:32:33.122Z,1.10
2017-10-22T13:35:00.428Z,1.07
2017-10-22T13:37:27.788Z,1.10
2017-10-22T13:39:55.066Z,0.70
2017-10-22T13:42:22.359Z,0.90
2017-10-22T13:44:50.451Z,0.67
2017-10-22T13:47:17.748Z,0.93
2017-10-22T13:49:45.040Z,1.00
2017-10-22T13:52:12.901Z,0.90
2017-10-22T13:54:40.193Z,0.70
2017-10-22T13:57:07.451Z,1.10
2017-10-22T13:59:34.782Z,1.00
2017-10-22T14:02:02.128Z,0.80
2017-10-22T14:04:29.515Z,1.00
2017-10-22T14:06:56.786Z,0.80
2017-10-22T14:09:24.054Z,1.20
2017-10-22T14:11:51.314Z,0.87
2017-10-22T14:14:18.604Z,0.80
2017-10-22T14:16:45.863Z,0.90
2017-10-22T14:19:13.135Z,0.83
2017-10-22T14:21:40.423Z,0.77
2017-10-22T14:24:07.707Z,0.87
2017-10-22T14:26:35.011Z,0.80
2017-10-22T14:29:02.295Z,1.10
2017-10-22T14:31:29.637Z,1.40
2017-10-22T14:33:56.918Z,1.10
2017-10-22T14:36:24.199Z,1.00
2017-10-22T14:38:51.456Z,1.23
2017-10-22T14:41:18.731Z,1.47
2017-10-22T14:43:45.995Z,1.00
2017-10-22T14:46:13.283Z,1.40
2017-10-22T14:51:14.369Z,1.33
2017-10-22T14:53:41.750Z,1.23
2017-10-22T14:56:09.044Z,1.10
2017-10-22T14:58:36.336Z,1.53
2017-10-22T15:01:03.653Z,1.50
2017-10-22T15:03:30.941Z,1.30
2017-10-22T15:05:58.251Z,1.77
2017-10-22T15:08:25.551Z,1.30
2017-10-22T15:10:52.852Z,1.20
2017-10-22T15:13:20.116Z,1.40
2017-10-22T15:15:47.414Z,2.20
2017-10-22T15:18:14.725Z,1.57
2017-10-22T15:20:41.994Z,1.67
2017-10-22T15:23:09.267Z,1.50
2017-10-22T15:25:36.583Z,1.43
2017-10-22T15:28:03.870Z,1.47
2017-10-22T15:30:31.178Z,1.50
2017-10-22T15:32:58.480Z,1.77
2017-10-22T15:35:25.775Z,1.50
2017-10-22T15:37:53.063Z,1.10
2017-10-22T15:40:20.391Z,1.40
2017-10-22T15:42:47.668Z,1.20
2017-10-22T15:45:14.974Z,1.43
2017-10-22T15:47:42.251Z,1.43
2017-10-22T15:50:09.557Z,1.10
2017-10-22T15:52:36.856Z,1.80
2017-10-22T15:55:04.157Z,1.17
2017-10-22T15:57:31.451Z,1.43
2017-10-22T15:59:58.744Z,0.90
2017-10-22T16:02:26.033Z,1.60
2017-10-22T16:04:53.370Z,1.50
2017-10-22T16:07:20.648Z,1.40
2017-10-22T16:09:47.968Z,1.60
2017-10-22T16:12:15.271Z,1.23
2017-10-22T16:14:42.552Z,1.60
2017-10-22T16:17:09.883Z,1.40
2017-10-22T16:19:37.188Z,1.50
2017-10-22T16:22:04.469Z,1.50
2017-10-22T16:24:31.770Z,1.37
2017-10-22T16:26:59.060Z,1.20
2017-10-22T16:29:26.388Z,1.80
2017-10-22T16:31:53.724Z,1.37
2017-10-22T16:34:20.988Z,1.10
2017-10-22T16:36:48.265Z,1.60
2017-10-22T16:39:15.534Z,1.70
2017-10-22T16:41:42.802Z,1.43
2017-10-22T16:44:10.122Z,1.40
2017-10-22T16:46:37.387Z,1.37
2017-10-22T16:49:04.677Z,1.43
2017-10-22T16:51:32.006Z,1.67
2017-10-22T16:53:59.272Z,1.43
2017-10-22T16:56:26.656Z,1.40
2017-10-22T16:58:53.923Z,1.57
2017-10-22T17:01:21.310Z,1.60
2017-10-22T17:03:48.668Z,1.83
2017-10-22T17:06:15.976Z,1.43
2017-10-22T17:08:43.251Z,1.30
2017-10-22T17:11:13.362Z,1.57
2017-10-22T17:13:40.649Z,1.77
2017-10-22T17:16:07.967Z,1.80
2017-10-22T17:18:35.281Z,1.87
2017-10-22T17:21:02.634Z,2.10
2017-10-22T17:23:29.951Z,2.07
2017-10-22T17:25:57.244Z,1.70
2017-10-22T17:28:24.592Z,1.60
2017-10-22T17:30:51.899Z,2.00
2017-10-22T17:33:19.244Z,2.27
2017-10-22T17:35:46.532Z,1.90
2017-10-22T17:38:13.818Z,1.60
2017-10-22T17:40:41.150Z,1.90
2017-10-22T17:43:08.471Z,2.23
2017-10-22T17:45:35.789Z,2.97
2017-10-22T17:48:03.169Z,2.20
2017-10-22T17:50:30.449Z,3.00
2017-10-22T17:52:57.802Z,2.13
2017-10-22T17:55:25.123Z,2.47
2017-10-22T17:57:52.424Z,2.03
2017-10-22T18:00:19.865Z,2.10
2017-10-22T18:02:47.131Z,2.63
2017-10-22T18:05:14.463Z,2.70
2017-10-22T18:07:41.729Z,2.10
2017-10-22T18:10:09.081Z,2.33
2017-10-22T18:12:36.391Z,2.20
2017-10-22T18:15:03.733Z,2.30
2017-10-22T18:17:31.061Z,2.93
2017-10-22T18:19:58.388Z,1.90
2017-10-22T18:22:25.699Z,1.57
2017-10-22T18:24:52.984Z,1.60
2017-10-22T18:27:20.287Z,2.20
2017-10-22T18:29:47.604Z,1.77
2017-10-22T18:32:14.914Z,1.70
2017-10-22T18:34:42.206Z,2.00
2017-10-22T18:37:09.541Z,3.13
2017-10-22T18:39:36.847Z,2.43
2017-10-22T18:42:04.271Z,1.93
2017-10-22T18:44:31.625Z,2.53
2017-10-22T18:46:58.949Z,2.30
2017-10-22T18:49:26.251Z,1.80
2017-10-22T18:51:53.655Z,2.10
2017-10-22T18:54:20.985Z,1.87
2017-10-22T18:56:48.282Z,2.57
2017-10-22T18:59:15.624Z,1.90
2017-10-22T19:01:42.941Z,2.03
2017-10-22T19:04:10.312Z,2.17
2017-10-22T19:06:37.658Z,2.33
2017-10-22T19:09:04.952Z,2.90
2017-10-22T19:11:32.313Z,2.23
2017-10-22T19:13:59.710Z,1.70
2017-10-22T19:16:27.082Z,2.70
2017-10-22T19:18:54.370Z,2.43
2017-10-22T19:21:21.716Z,2.33
2017-10-22T19:23:49.014Z,2.20
2017-10-22T19:26:16.371Z,1.97
2017-10-22T19:28:43.686Z,2.33
2017-10-22T19:31:11.001Z,1.90
2017-10-22T19:33:38.366Z,2.57
2017-10-22T19:36:05.733Z,3.87
2017-10-22T19:38:33.043Z,2.20
2017-10-22T19:41:00.431Z,2.00
2017-10-22T19:43:27.717Z,1.90
2017-10-22T19:45:55.034Z,1.80
2017-10-22T19:48:22.336Z,2.00
2017-10-22T19:50:49.648Z,1.90
2017-10-22T19:53:16.967Z,2.00
2017-10-22T19:55:44.298Z,1.67
2017-10-22T19:58:11.571Z,2.17
2017-10-22T20:00:38.969Z,2.37
2017-10-22T20:03:06.270Z,2.20
2017-10-22T20:05:33.597Z,1.90
2017-10-22T20:08:00.871Z,1.93
2017-10-22T20:10:28.187Z,2.07
2017-10-22T20:12:55.468Z,1.90
2017-10-22T20:15:22.730Z,1.80
2017-10-22T20:17:50.014Z,2.70
2017-10-22T20:20:17.297Z,2.10
2017-10-22T20:22:44.583Z,1.53
2017-10-22T20:25:11.933Z,2.20
2017-10-22T20:27:39.269Z,1.67
2017-10-22T20:30:06.576Z,2.30
2017-10-22T20:32:33.931Z,1.40
2017-10-22T20:35:01.343Z,1.93
2017-10-22T20:37:28.723Z,1.93
2017-10-22T20:39:56.056Z,1.70
2017-10-22T20:42:23.450Z,1.70
2017-10-22T20:44:50.779Z,2.20
2017-10-22T20:47:18.143Z,1.90
2017-10-22T20:49:45.537Z,2.20
2017-10-22T20:52:12.905Z,1.93
2017-10-22T20:54:40.207Z,2.03
2017-10-22T20:57:07.492Z,1.93
2017-10-22T20:59:34.793Z,2.00
2017-10-22T21:02:02.231Z,2.30
2017-10-22T21:04:29.511Z,2.20
2017-10-22T21:06:56.923Z,2.03
2017-10-22T21:09:24.267Z,2.20
2017-10-22T21:11:51.654Z,2.27
2017-10-22T21:14:18.960Z,1.90
2017-10-22T21:16:46.296Z,1.90
2017-10-22T21:19:13.613Z,1.70
2017-10-22T21:21:40.988Z,2.20
2017-10-22T21:24:08.269Z,2.20
2017-10-22T21:26:35.671Z,1.60
2017-10-22T21:29:02.986Z,2.27
2017-10-22T21:31:30.454Z,2.20
2017-10-22T21:33:57.846Z,1.97
2017-10-22T21:36:25.152Z,1.97
2017-10-22T21:38:52.501Z,2.47
2017-10-22T21:41:19.812Z,1.90
2017-10-22T21:43:47.133Z,1.87
2017-10-22T21:46:14.458Z,2.23
2017-10-22T21:48:42.073Z,1.80
2017-10-22T21:51:09.405Z,2.10
2017-10-22T21:53:36.875Z,2.27
2017-10-22T21:56:04.195Z,1.80
2017-10-22T21:58:31.526Z,1.60
2017-10-22T22:00:58.859Z,2.80
2017-10-22T22:03:26.184Z,2.07
2017-10-22T22:05:53.492Z,2.00
2017-10-22T22:08:20.859Z,2.80
2017-10-22T22:10:48.215Z,2.53
2017-10-22T22:13:15.608Z,2.37
2017-10-22T22:15:42.915Z,2.80
2017-10-22T22:18:10.329Z,2.13
2017-10-22T22:20:37.678Z,1.97
2017-10-22T22:23:05.000Z,1.90
2017-10-22T22:25:32.298Z,2.30
2017-10-22T22:27:59.866Z,2.40
2017-10-22T22:30:27.199Z,2.80
2017-10-22T22:32:54.557Z,1.80
2017-10-22T22:35:21.899Z,2.00
2017-10-22T22:37:49.286Z,2.20
2017-10-22T22:40:16.595Z,2.47
2017-10-22T22:42:43.977Z,2.13
2017-10-22T22:45:11.339Z,2.40
2017-10-22T22:47:38.694Z,1.87
2017-10-22T22:50:06.009Z,1.77
2017-10-22T22:52:33.322Z,2.20
2017-10-22T22:55:00.604Z,2.07
2017-10-22T22:57:27.947Z,2.20
2017-10-22T22:59:55.237Z,2.10
2017-10-22T23:02:22.587Z,1.97
2017-10-22T23:04:49.867Z,2.20
2017-10-22T23:07:17.211Z,2.47
2017-10-22T23:09:44.526Z,2.10
2017-10-22T23:12:11.803Z,2.40
2017-10-22T23:14:39.112Z,2.37
2017-10-22T23:17:06.404Z,2.03
2017-10-22T23:19:33.667Z,2.30
2017-10-22T23:22:00.996Z,1.80
2017-10-22T23:24:28.304Z,1.93
2017-10-22T23:26:55.645Z,2.03
2017-10-22T23:29:22.946Z,1.93
2017-10-22T23:31:50.256Z,2.67
2017-10-22T23:34:17.590Z,2.23
2017-10-22T23:36:44.979Z,2.40
2017-10-22T23:39:12.308Z,2.63
2017-10-22T23:41:39.606Z,2.10
2017-10-22T23:44:07.109Z,2.30
2017-10-22T23:46:34.454Z,2.13
2017-10-22T23:49:01.756Z,2.33
2017-10-22T23:51:29.094Z,2.43
2017-10-22T23:53:56.410Z,2.00
2017-10-22T23:56:23.807Z,2.70
2017-10-22T23:58:51.223Z,2.27
